header
chart

Reported and forecast weather at local airports

Important: not to be used for flight planning purposes.


EGBB METAR fetched   Thursday 17th Aug @ 22:15:26
EGBB 172050Z 21007KT 170V250 CAVOK 17/12 Q1009

EGCC METAR fetched   Thursday 17th Aug @ 22:15:23
EGCC 172050Z AUTO 21007KT 9999 NCD 16/12 Q1008 NOSIG

EGGP METAR fetched   Thursday 17th Aug @ 22:15:24
EGGP 172050Z 19012KT CAVOK 17/11 Q1007

EGNH METAR fetched   Thursday 17th Aug @ 22:15:25
EGNH 172050Z 20017KT CAVOK 16/12 Q1007

EGNM METAR fetched   Thursday 17th Aug @ 22:15:25
EGNM 172050Z 20005KT 170V240 CAVOK 15/10 Q1007

EGOV METAR fetched   Thursday 17th Aug @ 22:15:27
EGOV 172050Z AUTO 19024KT 8000 HZ SCT011/// 16/14 Q1005


EGBB TAF fetched   Thursday 17th Aug @ 22:15:26
TAF EGBB 171705Z 1718/1818 23012KT 9999 SCT025 PROB40 TEMPO 1800/1804 7000 SHRA BKN014 TEMPO 1809/1818 24018G28KT TEMPO 1811/1818 7000 SHRA PROB30 TEMPO 1811/1818 4000 +SHRA BKN014 BKN020CB

EGCC TAF fetched   Thursday 17th Aug @ 22:15:24
TAF EGCC 171705Z 1718/1824 21010KT 9999 SCT035 TEMPO 1723/1824 7000 RA SHRA PROB30 TEMPO 1723/1806 4000 +SHRA BKN014 TEMPO 1809/1824 24018G28KT PROB40 TEMPO 1812/1824 4000 +SHRA BKN014 BKN020CB BECMG 1821/1824 28012KT

EGGP TAF fetched   Thursday 17th Aug @ 22:15:24
TAF EGGP 171705Z 1718/1818 22014KT 9999 SCT025 TEMPO 1723/1818 7000 RA SHRA PROB30 TEMPO 1723/1806 4000 +SHRA BKN014 TEMPO 1809/1818 24020G30KT PROB40 TEMPO 1811/1818 4000 +SHRA BKN014 BKN020CB

EGNM TAF fetched   Thursday 17th Aug @ 22:15:26
TAF TAF EGNM 171655Z 1718/1818 25011KT 9999 FEW010 SCT030 PROB30 TEMPO 1718/1720 9000 SHRA TEMPO 1800/1818 24018G18KT 7000 SHRA PROB30 TEMPO 1802/1818 3000 +SHRA BKN014

EGOV TAF fetched   Thursday 17th Aug @ 22:15:27
TAF TAF EGOV 190525Z 1906/1918 04008KT CAVOK PROB30 TEMPO 1906/1912 6000 SHRA TEMPO 1912/1915 4000 +SHRA SCT020 BKN030CB PROB30 TEMPO 1913/1915 VRBG20G30KT 2500 TSGR BKN012

Every effort is made to ensure that this information is free from errors but as it is provided by a third party the accuracy of the reports cannot be guaranteed.